PUA2401 SULS-SACO
Flight info
| Callsign | PUA2401 |
|---|---|
| Flight time | 1h 17m |
| Altitude | 40000 |
| Route | LUCIO UL405 PTA DCT ATOVO UW5 ASISA ASISA1Q |
| Aircraft | B788/H-SDE1E2E3FGHIJ2J3J4J5M1RWXY/LB1D1 |
Departure
| Time | 2026-04-25 01:36 |
|---|---|
| Airport | Capitan Corbeta CA Curbelo International Airport (SULS) |
Arrival
| Time | 2026-04-25 02:53 |
|---|---|
| Airport | Ingeniero Aeronáutico Ambrosio L.V. Taravella International Airport (SACO) |
| Time | Latitude | Longitude | Altitude | Speed | Heading |
|---|---|---|---|---|---|
| 2026-04-25 00:57 | -34.85965 | -55.09946 | 105 ft | 0 kts | 162° |
| 2026-04-25 01:19 | -34.85966 | -55.09946 | 105 ft | 0 kts | 162° |
| 2026-04-25 01:29 | -34.85967 | -55.09945 | 105 ft | 2 kts | 162° |
| 2026-04-25 01:29 | -34.85993 | -55.09933 | 106 ft | 1 kts | 152° |
| 2026-04-25 01:30 | -34.86005 | -55.09903 | 106 ft | 2 kts | 101° |
| 2026-04-25 01:30 | -34.85995 | -55.09841 | 105 ft | 6 kts | 75° |
| 2026-04-25 01:30 | -34.85981 | -55.09791 | 106 ft | 9 kts | 62° |
| 2026-04-25 01:30 | -34.85933 | -55.09776 | 106 ft | 8 kts | 348° |
| 2026-04-25 01:31 | -34.85876 | -55.09827 | 106 ft | 13 kts | 333° |
| 2026-04-25 01:31 | -34.85785 | -55.09867 | 106 ft | 13 kts | 342° |
| 2026-04-25 01:31 | -34.85702 | -55.09899 | 107 ft | 9 kts | 342° |
| 2026-04-25 01:31 | -34.85668 | -55.09946 | 107 ft | 10 kts | 283° |
| 2026-04-25 01:32 | -34.85693 | -55.10082 | 107 ft | 19 kts | 252° |
| 2026-04-25 01:32 | -34.85730 | -55.10228 | 104 ft | 19 kts | 252° |
| 2026-04-25 01:32 | -34.85772 | -55.10388 | 104 ft | 22 kts | 252° |
| 2026-04-25 01:32 | -34.85818 | -55.10559 | 105 ft | 21 kts | 252° |
| 2026-04-25 01:33 | -34.85867 | -55.10743 | 106 ft | 24 kts | 252° |
| 2026-04-25 01:33 | -34.85917 | -55.10930 | 106 ft | 23 kts | 252° |
| 2026-04-25 01:33 | -34.85959 | -55.11084 | 105 ft | 19 kts | 252° |
| 2026-04-25 01:33 | -34.85989 | -55.11142 | 105 ft | 3 kts | 212° |
| 2026-04-25 01:34 | -34.85999 | -55.11173 | 105 ft | 5 kts | 290° |
| 2026-04-25 01:34 | -34.85981 | -55.11167 | 106 ft | 2 kts | 40° |
| 2026-04-25 01:34 | -34.85974 | -55.11145 | 106 ft | 9 kts | 68° |
| 2026-04-25 01:34 | -34.85970 | -55.11128 | 105 ft | 0 kts | 72° |
| 2026-04-25 01:35 | -34.85925 | -55.10960 | 105 ft | 54 kts | 72° |
| 2026-04-25 01:35 | -34.85722 | -55.10208 | 105 ft | 131 kts | 71° |
| 2026-04-25 01:36 | -34.85389 | -55.08962 | 477 ft | 163 kts | 76° |
| 2026-04-25 01:36 | -34.85347 | -55.07708 | 1676 ft | 141 kts | 110° |
| 2026-04-25 01:36 | -34.85995 | -55.06677 | 2037 ft | 174 kts | 140° |
| 2026-04-25 01:36 | -34.87261 | -55.06366 | 2306 ft | 207 kts | 189° |
| 2026-04-25 01:37 | -34.88548 | -55.07278 | 2748 ft | 226 kts | 232° |
| 2026-04-25 01:37 | -34.89137 | -55.09040 | 3675 ft | 231 kts | 255° |
| 2026-04-25 01:37 | -34.89524 | -55.11051 | 4256 ft | 257 kts | 258° |
| 2026-04-25 01:37 | -34.89935 | -55.13202 | 5234 ft | 263 kts | 256° |
| 2026-04-25 01:38 | -34.90396 | -55.15350 | 6561 ft | 263 kts | 255° |
| 2026-04-25 01:38 | -34.90875 | -55.17534 | 7713 ft | 270 kts | 255° |
| 2026-04-25 01:38 | -34.91346 | -55.19736 | 8853 ft | 274 kts | 256° |
| 2026-04-25 01:38 | -34.91827 | -55.22008 | 9960 ft | 279 kts | 256° |
| 2026-04-25 01:39 | -34.92328 | -55.24369 | 10682 ft | 300 kts | 256° |
| 2026-04-25 01:39 | -34.92876 | -55.26946 | 11130 ft | 328 kts | 256° |
| 2026-04-25 01:39 | -34.93472 | -55.29753 | 11550 ft | 353 kts | 256° |
| 2026-04-25 01:39 | -34.94088 | -55.32655 | 12624 ft | 355 kts | 256° |
| 2026-04-25 01:40 | -34.94711 | -55.35599 | 13552 ft | 362 kts | 256° |
| 2026-04-25 01:40 | -34.95343 | -55.38587 | 14475 ft | 367 kts | 256° |
| 2026-04-25 01:40 | -34.95983 | -55.41616 | 15364 ft | 372 kts | 256° |
| 2026-04-25 01:40 | -34.96631 | -55.44689 | 16222 ft | 377 kts | 256° |
| 2026-04-25 01:41 | -34.97287 | -55.47803 | 17048 ft | 382 kts | 256° |
| 2026-04-25 01:41 | -34.97950 | -55.50956 | 17844 ft | 386 kts | 256° |
| 2026-04-25 01:41 | -34.98621 | -55.54151 | 18608 ft | 391 kts | 256° |
| 2026-04-25 01:41 | -34.99299 | -55.57383 | 19356 ft | 396 kts | 256° |
| 2026-04-25 01:42 | -34.99984 | -55.60654 | 20069 ft | 400 kts | 256° |
| 2026-04-25 01:42 | -35.00676 | -55.63959 | 20755 ft | 404 kts | 256° |
| 2026-04-25 01:42 | -35.01374 | -55.67303 | 21408 ft | 409 kts | 256° |
| 2026-04-25 01:42 | -35.02078 | -55.70678 | 22041 ft | 413 kts | 256° |
| 2026-04-25 01:43 | -35.02789 | -55.74094 | 22649 ft | 417 kts | 256° |
| 2026-04-25 01:43 | -35.03504 | -55.77534 | 23224 ft | 420 kts | 256° |
| 2026-04-25 01:43 | -35.04225 | -55.81008 | 23781 ft | 424 kts | 256° |
| 2026-04-25 01:43 | -35.04951 | -55.84512 | 24308 ft | 428 kts | 256° |
| 2026-04-25 01:44 | -35.05370 | -55.88111 | 24816 ft | 431 kts | 269° |
| 2026-04-25 01:44 | -35.05207 | -55.91778 | 25286 ft | 434 kts | 274° |
| 2026-04-25 01:44 | -35.04961 | -55.95468 | 25778 ft | 438 kts | 275° |
| 2026-04-25 01:44 | -35.04694 | -55.99178 | 26254 ft | 441 kts | 275° |
| 2026-04-25 01:45 | -35.04440 | -56.02917 | 26719 ft | 444 kts | 274° |
| 2026-04-25 01:45 | -35.04193 | -56.06688 | 27176 ft | 447 kts | 274° |
| 2026-04-25 01:45 | -35.03938 | -56.10485 | 27620 ft | 450 kts | 275° |
| 2026-04-25 01:45 | -35.03672 | -56.14309 | 28053 ft | 453 kts | 275° |
| 2026-04-25 01:46 | -35.03401 | -56.18153 | 28478 ft | 456 kts | 275° |
| 2026-04-25 01:46 | -35.03133 | -56.21973 | 28895 ft | 459 kts | 275° |
| 2026-04-25 01:46 | -35.02859 | -56.25870 | 29302 ft | 462 kts | 275° |
| 2026-04-25 01:46 | -35.02582 | -56.29787 | 29707 ft | 465 kts | 275° |
| 2026-04-25 01:47 | -35.02301 | -56.33734 | 30089 ft | 468 kts | 275° |
| 2026-04-25 01:47 | -35.02017 | -56.37698 | 30469 ft | 471 kts | 275° |
| 2026-04-25 01:47 | -35.01731 | -56.41685 | 30837 ft | 474 kts | 275° |
| 2026-04-25 01:47 | -35.01441 | -56.45705 | 31193 ft | 476 kts | 275° |
| 2026-04-25 01:48 | -35.01149 | -56.49737 | 31541 ft | 479 kts | 275° |
| 2026-04-25 01:48 | -35.00853 | -56.53797 | 31880 ft | 481 kts | 275° |
| 2026-04-25 01:48 | -35.00554 | -56.57879 | 32216 ft | 484 kts | 275° |
| 2026-04-25 01:48 | -35.00253 | -56.61975 | 32529 ft | 486 kts | 275° |
| 2026-04-25 01:49 | -34.99949 | -56.66093 | 32844 ft | 489 kts | 275° |
| 2026-04-25 01:49 | -34.99642 | -56.70231 | 33137 ft | 491 kts | 275° |
| 2026-04-25 01:49 | -34.99332 | -56.74387 | 33428 ft | 493 kts | 275° |
| 2026-04-25 01:49 | -34.99020 | -56.78562 | 33704 ft | 496 kts | 275° |
| 2026-04-25 01:50 | -34.98704 | -56.82759 | 33973 ft | 498 kts | 275° |
| 2026-04-25 01:50 | -34.98386 | -56.86965 | 34315 ft | 498 kts | 275° |
| 2026-04-25 01:50 | -34.98264 | -56.91174 | 34682 ft | 497 kts | 270° |
| 2026-04-25 01:50 | -34.98249 | -56.95379 | 35065 ft | 495 kts | 270° |
| 2026-04-25 01:51 | -34.98238 | -56.99572 | 35458 ft | 494 kts | 270° |
| 2026-04-25 01:51 | -34.98220 | -57.03761 | 35824 ft | 494 kts | 270° |
| 2026-04-25 01:51 | -34.98197 | -57.07948 | 36193 ft | 493 kts | 270° |
| 2026-04-25 01:51 | -34.98176 | -57.12120 | 36566 ft | 492 kts | 270° |
| 2026-04-25 01:52 | -34.98160 | -57.16292 | 36886 ft | 492 kts | 270° |
| 2026-04-25 01:52 | -34.98141 | -57.20466 | 37235 ft | 492 kts | 270° |
| 2026-04-25 01:52 | -34.98118 | -57.24630 | 37570 ft | 491 kts | 270° |
| 2026-04-25 01:52 | -34.98093 | -57.28739 | 37904 ft | 491 kts | 270° |
| 2026-04-25 01:53 | -34.98068 | -57.32894 | 38243 ft | 490 kts | 270° |
| 2026-04-25 01:53 | -34.98043 | -57.37045 | 38582 ft | 489 kts | 270° |
| 2026-04-25 01:53 | -34.98015 | -57.41193 | 38929 ft | 488 kts | 270° |
| 2026-04-25 01:53 | -34.97985 | -57.45328 | 39279 ft | 487 kts | 270° |
| 2026-04-25 01:54 | -34.97955 | -57.49452 | 39626 ft | 486 kts | 270° |
| 2026-04-25 01:54 | -34.97924 | -57.53564 | 39942 ft | 485 kts | 270° |
| 2026-04-25 01:54 | -34.97855 | -57.61858 | 39995 ft | 489 kts | 270° |
| 2026-04-25 01:55 | -34.97782 | -57.70100 | 39991 ft | 484 kts | 270° |
| 2026-04-25 01:55 | -34.97704 | -57.78305 | 40000 ft | 484 kts | 270° |
| 2026-04-25 01:56 | -34.97245 | -57.86464 | 40021 ft | 483 kts | 284° |
| 2026-04-25 01:56 | -34.96182 | -57.90353 | 40022 ft | 485 kts | 295° |
| 2026-04-25 01:56 | -34.94505 | -57.93926 | 40032 ft | 486 kts | 306° |
| 2026-04-25 01:57 | -34.87894 | -58.03320 | 40011 ft | 486 kts | 311° |
| 2026-04-25 01:58 | -34.83429 | -58.09499 | 40012 ft | 485 kts | 311° |
| 2026-04-25 01:58 | -34.78984 | -58.15667 | 40011 ft | 484 kts | 311° |
| 2026-04-25 01:59 | -34.74533 | -58.21812 | 40009 ft | 483 kts | 311° |
| 2026-04-25 01:59 | -34.70086 | -58.27954 | 40010 ft | 484 kts | 311° |
| 2026-04-25 02:00 | -34.65619 | -58.34103 | 40010 ft | 486 kts | 311° |
| 2026-04-25 02:00 | -34.61132 | -58.40275 | 40012 ft | 488 kts | 311° |
| 2026-04-25 02:01 | -34.56638 | -58.46441 | 40009 ft | 487 kts | 311° |
| 2026-04-25 02:01 | -34.52156 | -58.52584 | 40009 ft | 485 kts | 311° |
| 2026-04-25 02:02 | -34.47682 | -58.58703 | 40006 ft | 484 kts | 311° |
| 2026-04-25 02:02 | -34.43247 | -58.64758 | 40003 ft | 484 kts | 311° |
| 2026-04-25 02:03 | -34.38770 | -58.70860 | 40004 ft | 485 kts | 311° |
| 2026-04-25 02:03 | -34.34280 | -58.76969 | 40006 ft | 486 kts | 311° |
| 2026-04-25 02:04 | -34.29775 | -58.83087 | 40008 ft | 487 kts | 311° |
| 2026-04-25 02:04 | -34.25261 | -58.89208 | 40010 ft | 488 kts | 311° |
| 2026-04-25 02:05 | -34.20744 | -58.95321 | 40002 ft | 487 kts | 311° |
| 2026-04-25 02:05 | -34.16242 | -59.01405 | 40002 ft | 485 kts | 311° |
| 2026-04-25 02:06 | -34.11745 | -59.07471 | 40002 ft | 484 kts | 311° |
| 2026-04-25 02:06 | -34.07252 | -59.13520 | 40001 ft | 484 kts | 311° |
| 2026-04-25 02:07 | -34.02907 | -59.19736 | 40011 ft | 485 kts | 310° |
| 2026-04-25 02:07 | -33.98530 | -59.25958 | 40006 ft | 487 kts | 309° |
| 2026-04-25 02:08 | -33.94203 | -59.32237 | 40002 ft | 487 kts | 309° |
| 2026-04-25 02:08 | -33.89843 | -59.38472 | 40002 ft | 487 kts | 309° |
| 2026-04-25 02:09 | -33.85526 | -59.44677 | 40000 ft | 486 kts | 309° |
| 2026-04-25 02:09 | -33.81880 | -59.49892 | 40000 ft | 486 kts | 310° |
| 2026-04-25 02:10 | -33.76826 | -59.57119 | 40001 ft | 486 kts | 310° |
| 2026-04-25 02:10 | -33.72476 | -59.63324 | 40002 ft | 485 kts | 310° |
| 2026-04-25 02:11 | -33.68856 | -59.68479 | 40000 ft | 485 kts | 310° |
| 2026-04-25 02:11 | -33.64497 | -59.74665 | 40003 ft | 485 kts | 310° |
| 2026-04-25 02:12 | -33.60139 | -59.80844 | 40002 ft | 485 kts | 310° |
| 2026-04-25 02:12 | -33.55779 | -59.87013 | 40004 ft | 485 kts | 310° |
| 2026-04-25 02:13 | -33.51418 | -59.93173 | 40008 ft | 484 kts | 310° |
| 2026-04-25 02:13 | -33.47057 | -59.99322 | 40003 ft | 484 kts | 310° |
| 2026-04-25 02:14 | -33.42694 | -60.05463 | 40000 ft | 484 kts | 310° |
| 2026-04-25 02:14 | -33.38328 | -60.11600 | 39998 ft | 484 kts | 310° |
| 2026-04-25 02:15 | -33.33966 | -60.17719 | 39997 ft | 484 kts | 310° |
| 2026-04-25 02:15 | -33.29595 | -60.23841 | 39996 ft | 483 kts | 310° |
| 2026-04-25 02:16 | -33.25228 | -60.29947 | 40001 ft | 484 kts | 310° |
| 2026-04-25 02:16 | -33.20845 | -60.36066 | 40000 ft | 486 kts | 310° |
| 2026-04-25 02:17 | -33.16444 | -60.42198 | 40003 ft | 487 kts | 310° |
| 2026-04-25 02:17 | -33.12027 | -60.48343 | 40006 ft | 487 kts | 310° |
| 2026-04-25 02:18 | -33.07644 | -60.54430 | 40007 ft | 486 kts | 310° |
| 2026-04-25 02:18 | -33.03236 | -60.60543 | 40003 ft | 486 kts | 310° |
| 2026-04-25 02:19 | -32.98830 | -60.66641 | 40004 ft | 485 kts | 310° |
| 2026-04-25 02:19 | -32.94427 | -60.72726 | 40005 ft | 484 kts | 310° |
| 2026-04-25 02:20 | -32.90148 | -60.78911 | 40021 ft | 483 kts | 301° |
| 2026-04-25 02:20 | -32.86717 | -60.85797 | 40013 ft | 485 kts | 300° |
| 2026-04-25 02:21 | -32.83311 | -60.92728 | 40009 ft | 485 kts | 300° |
| 2026-04-25 02:21 | -32.79878 | -60.99639 | 40010 ft | 486 kts | 300° |
| 2026-04-25 02:22 | -32.76453 | -61.06562 | 40012 ft | 486 kts | 300° |
| 2026-04-25 02:22 | -32.73036 | -61.13430 | 40010 ft | 486 kts | 300° |
| 2026-04-25 02:23 | -32.69597 | -61.20344 | 40012 ft | 486 kts | 300° |
| 2026-04-25 02:23 | -32.66150 | -61.27254 | 40011 ft | 486 kts | 300° |
| 2026-04-25 02:24 | -32.62702 | -61.34156 | 40011 ft | 486 kts | 300° |
| 2026-04-25 02:24 | -32.59246 | -61.41060 | 40012 ft | 486 kts | 300° |
| 2026-04-25 02:25 | -32.55788 | -61.47954 | 40011 ft | 486 kts | 300° |
| 2026-04-25 02:25 | -32.52324 | -61.54850 | 40011 ft | 486 kts | 300° |
| 2026-04-25 02:26 | -32.48858 | -61.61734 | 40011 ft | 486 kts | 300° |
| 2026-04-25 02:26 | -32.45388 | -61.68615 | 40011 ft | 486 kts | 301° |
| 2026-04-25 02:27 | -32.41917 | -61.75485 | 40011 ft | 487 kts | 301° |
| 2026-04-25 02:27 | -32.38439 | -61.82357 | 40011 ft | 487 kts | 301° |
| 2026-04-25 02:28 | -32.34958 | -61.89222 | 40011 ft | 487 kts | 301° |
| 2026-04-25 02:28 | -32.31476 | -61.96080 | 40011 ft | 486 kts | 301° |
| 2026-04-25 02:29 | -32.28019 | -62.02881 | 40010 ft | 486 kts | 301° |
| 2026-04-25 02:29 | -32.24537 | -62.09715 | 40009 ft | 485 kts | 301° |
| 2026-04-25 02:30 | -32.21055 | -62.16539 | 40008 ft | 485 kts | 301° |
| 2026-04-25 02:30 | -32.17568 | -62.23359 | 40007 ft | 485 kts | 301° |
| 2026-04-25 02:31 | -32.14082 | -62.30167 | 40006 ft | 484 kts | 301° |
| 2026-04-25 02:31 | -32.10594 | -62.36964 | 40006 ft | 484 kts | 301° |
| 2026-04-25 02:32 | -32.07104 | -62.43754 | 40005 ft | 484 kts | 301° |
| 2026-04-25 02:32 | -32.03612 | -62.50536 | 40005 ft | 484 kts | 301° |
| 2026-04-25 02:33 | -32.00116 | -62.57313 | 40004 ft | 484 kts | 301° |
| 2026-04-25 02:33 | -31.96619 | -62.64080 | 40004 ft | 484 kts | 301° |
| 2026-04-25 02:34 | -31.93117 | -62.70845 | 40004 ft | 484 kts | 301° |
| 2026-04-25 02:34 | -31.89613 | -62.77600 | 40003 ft | 483 kts | 301° |
| 2026-04-25 02:35 | -31.86106 | -62.84349 | 40003 ft | 483 kts | 301° |
| 2026-04-25 02:35 | -31.82607 | -62.91073 | 39316 ft | 482 kts | 301° |
| 2026-04-25 02:35 | -31.80850 | -62.94445 | 38531 ft | 484 kts | 301° |
| 2026-04-25 02:36 | -31.79116 | -62.97769 | 37819 ft | 484 kts | 301° |
| 2026-04-25 02:36 | -31.77357 | -63.01137 | 37067 ft | 483 kts | 301° |
| 2026-04-25 02:36 | -31.75596 | -63.04508 | 36283 ft | 483 kts | 301° |
| 2026-04-25 02:36 | -31.73834 | -63.07876 | 35451 ft | 483 kts | 301° |
| 2026-04-25 02:37 | -31.72074 | -63.11237 | 34508 ft | 485 kts | 301° |
| 2026-04-25 02:37 | -31.70300 | -63.14624 | 33492 ft | 487 kts | 301° |
| 2026-04-25 02:37 | -31.68521 | -63.18017 | 32422 ft | 489 kts | 301° |
| 2026-04-25 02:37 | -31.66713 | -63.21408 | 31270 ft | 491 kts | 304° |
| 2026-04-25 02:38 | -31.64647 | -63.24606 | 30443 ft | 487 kts | 307° |
| 2026-04-25 02:38 | -31.62590 | -63.27716 | 29704 ft | 480 kts | 307° |
| 2026-04-25 02:38 | -31.60555 | -63.30789 | 28910 ft | 475 kts | 307° |
| 2026-04-25 02:38 | -31.58546 | -63.33835 | 28137 ft | 469 kts | 307° |
| 2026-04-25 02:39 | -31.56561 | -63.36844 | 27384 ft | 464 kts | 307° |
| 2026-04-25 02:39 | -31.54598 | -63.39810 | 26618 ft | 458 kts | 307° |
| 2026-04-25 02:39 | -31.52654 | -63.42743 | 25843 ft | 453 kts | 307° |
| 2026-04-25 02:39 | -31.50734 | -63.45641 | 25067 ft | 447 kts | 307° |
| 2026-04-25 02:40 | -31.48836 | -63.48507 | 24284 ft | 442 kts | 307° |
| 2026-04-25 02:40 | -31.46959 | -63.51336 | 23509 ft | 437 kts | 307° |
| 2026-04-25 02:40 | -31.45103 | -63.54131 | 22730 ft | 432 kts | 307° |
| 2026-04-25 02:40 | -31.43270 | -63.56888 | 21955 ft | 427 kts | 307° |
| 2026-04-25 02:41 | -31.41456 | -63.59616 | 21163 ft | 422 kts | 307° |
| 2026-04-25 02:41 | -31.39662 | -63.62313 | 20377 ft | 417 kts | 307° |
| 2026-04-25 02:41 | -31.37890 | -63.64974 | 19596 ft | 412 kts | 307° |
| 2026-04-25 02:41 | -31.36139 | -63.67601 | 18811 ft | 407 kts | 307° |
| 2026-04-25 02:42 | -31.34406 | -63.70201 | 18013 ft | 402 kts | 307° |
| 2026-04-25 02:42 | -31.32695 | -63.72766 | 17223 ft | 398 kts | 307° |
| 2026-04-25 02:42 | -31.31002 | -63.75302 | 16430 ft | 393 kts | 307° |
| 2026-04-25 02:42 | -31.29331 | -63.77803 | 15642 ft | 388 kts | 307° |
| 2026-04-25 02:43 | -31.27677 | -63.80277 | 14839 ft | 384 kts | 307° |
| 2026-04-25 02:43 | -31.26093 | -63.82644 | 14738 ft | 362 kts | 308° |
| 2026-04-25 02:43 | -31.24571 | -63.84918 | 14716 ft | 338 kts | 307° |
| 2026-04-25 02:43 | -31.23184 | -63.86989 | 14679 ft | 318 kts | 307° |
| 2026-04-25 02:44 | -31.21859 | -63.88967 | 14649 ft | 300 kts | 307° |
| 2026-04-25 02:44 | -31.20612 | -63.90827 | 14598 ft | 283 kts | 307° |
| 2026-04-25 02:44 | -31.19432 | -63.92586 | 14470 ft | 270 kts | 307° |
| 2026-04-25 02:44 | -31.18275 | -63.94312 | 14031 ft | 270 kts | 307° |
| 2026-04-25 02:45 | -31.17121 | -63.96031 | 13655 ft | 268 kts | 307° |
| 2026-04-25 02:45 | -31.15974 | -63.97738 | 13265 ft | 266 kts | 307° |
| 2026-04-25 02:45 | -31.14834 | -63.99435 | 12874 ft | 265 kts | 307° |
| 2026-04-25 02:45 | -31.13703 | -64.01117 | 12487 ft | 263 kts | 307° |
| 2026-04-25 02:46 | -31.12577 | -64.02792 | 12098 ft | 261 kts | 307° |
| 2026-04-25 02:46 | -31.11432 | -64.04495 | 11181 ft | 277 kts | 307° |
| 2026-04-25 02:46 | -31.10225 | -64.06289 | 10690 ft | 279 kts | 308° |
| 2026-04-25 02:46 | -31.09036 | -64.08059 | 10233 ft | 276 kts | 306° |
| 2026-04-25 02:47 | -31.08231 | -64.10056 | 9825 ft | 270 kts | 280° |
| 2026-04-25 02:47 | -31.08148 | -64.12153 | 9831 ft | 249 kts | 267° |
| 2026-04-25 02:47 | -31.08241 | -64.14106 | 9809 ft | 233 kts | 266° |
| 2026-04-25 02:47 | -31.08346 | -64.15933 | 9772 ft | 219 kts | 266° |
| 2026-04-25 02:48 | -31.08439 | -64.17661 | 9721 ft | 207 kts | 266° |
| 2026-04-25 02:48 | -31.08594 | -64.19326 | 9425 ft | 208 kts | 252° |
| 2026-04-25 02:48 | -31.09452 | -64.20639 | 9052 ft | 202 kts | 220° |
| 2026-04-25 02:48 | -31.10765 | -64.21206 | 8186 ft | 208 kts | 185° |
| 2026-04-25 02:49 | -31.12183 | -64.21184 | 7435 ft | 200 kts | 179° |
| 2026-04-25 02:49 | -31.13549 | -64.21113 | 6653 ft | 195 kts | 178° |
| 2026-04-25 02:49 | -31.14877 | -64.21062 | 5878 ft | 192 kts | 180° |
| 2026-04-25 02:49 | -31.16204 | -64.21039 | 5069 ft | 190 kts | 180° |
| 2026-04-25 02:50 | -31.17515 | -64.21020 | 4267 ft | 186 kts | 180° |
| 2026-04-25 02:50 | -31.18763 | -64.21001 | 3820 ft | 168 kts | 180° |
| 2026-04-25 02:50 | -31.19880 | -64.20984 | 3774 ft | 161 kts | 181° |
| 2026-04-25 02:50 | -31.21000 | -64.20968 | 3668 ft | 162 kts | 181° |
| 2026-04-25 02:51 | -31.22122 | -64.20952 | 3468 ft | 161 kts | 181° |
| 2026-04-25 02:51 | -31.23264 | -64.20936 | 2876 ft | 166 kts | 180° |
| 2026-04-25 02:51 | -31.24374 | -64.20920 | 2606 ft | 146 kts | 180° |
| 2026-04-25 02:51 | -31.25394 | -64.20912 | 2463 ft | 147 kts | 181° |
| 2026-04-25 02:52 | -31.26399 | -64.20900 | 2269 ft | 142 kts | 180° |
| 2026-04-25 02:52 | -31.27389 | -64.20885 | 2079 ft | 142 kts | 182° |
| 2026-04-25 02:52 | -31.28381 | -64.20861 | 1843 ft | 142 kts | 182° |
| 2026-04-25 02:52 | -31.29358 | -64.20855 | 1688 ft | 139 kts | 179° |
| 2026-04-25 02:53 | -31.30289 | -64.20842 | 1625 ft | 117 kts | 180° |
| 2026-04-25 02:53 | -31.30880 | -64.20836 | 1618 ft | 55 kts | 179° |
| 2026-04-25 02:53 | -31.31204 | -64.20833 | 1624 ft | 43 kts | 178° |
| 2026-04-25 02:53 | -31.31414 | -64.20834 | 1625 ft | 15 kts | 195° |
| 2026-04-25 02:54 | -31.31467 | -64.20923 | 1619 ft | 15 kts | 261° |
| 2026-04-25 02:54 | -31.31472 | -64.21018 | 1619 ft | 9 kts | 256° |
| 2026-04-25 02:54 | -31.31529 | -64.21079 | 1623 ft | 7 kts | 216° |
| 2026-04-25 02:54 | -31.31541 | -64.21116 | 1625 ft | 6 kts | 261° |
| 2026-04-25 02:55 | -31.31550 | -64.21160 | 1622 ft | 0 kts | 257° |